Time;durP1;ratioP1;P1;durP2;ratioP2;P2;SDS_P1;SDS_P2;PMS_P1;PMS_P2;Temp;Humidity;BMP_temperature;BMP_pressure;BME280_temperature;BME280_humidity;BME280_pressure;Samples;Min_cycle;Max_cycle;Signal;HPM_P1;HPM_P2
2021/08/29 00:00:11;;;;;;;6.43;3.08;;;10.60;99.90;;;;;;5029495;28;20487;-60
2021/08/29 00:02:37;;;;;;;5.28;2.90;;;10.60;99.90;;;;;;5033540;28;20038;-60
2021/08/29 00:05:04;;;;;;;6.18;2.90;;;10.50;99.90;;;;;;5033169;28;20029;-59
2021/08/29 00:07:30;;;;;;;7.78;3.38;;;10.60;99.90;;;;;;5033926;28;20455;-60
2021/08/29 00:09:56;;;;;;;10.43;3.38;;;10.60;99.90;;;;;;5032827;28;20061;-61
2021/08/29 00:12:21;;;;;;;8.18;3.25;;;10.60;99.90;;;;;;5034143;28;20025;-59
2021/08/29 00:14:47;;;;;;;8.48;3.35;;;10.50;99.90;;;;;;5032558;28;20033;-61
2021/08/29 00:17:13;;;;;;;6.20;3.35;;;10.50;99.90;;;;;;5033547;28;20026;-60
2021/08/29 00:19:38;;;;;;;9.20;3.53;;;10.40;99.90;;;;;;5032723;28;20060;-60
2021/08/29 00:22:04;;;;;;;10.88;3.60;;;10.40;99.90;;;;;;5033274;28;20079;-59
2021/08/29 00:24:30;;;;;;;5.82;3.53;;;10.30;99.90;;;;;;5032626;28;20387;-60
2021/08/29 00:26:56;;;;;;;5.05;2.78;;;10.30;99.90;;;;;;5033396;28;20044;-60
2021/08/29 00:29:22;;;;;;;8.45;3.40;;;10.30;99.90;;;;;;5032410;28;20380;-58
2021/08/29 00:31:47;;;;;;;7.60;3.05;;;10.30;99.90;;;;;;5033356;28;20518;-63
2021/08/29 00:34:13;;;;;;;9.18;3.10;;;10.30;99.90;;;;;;5032380;28;20392;-59
2021/08/29 00:36:39;;;;;;;5.35;2.97;;;10.30;99.90;;;;;;5033117;28;20040;-60
2021/08/29 00:39:05;;;;;;;9.15;3.03;;;10.20;99.90;;;;;;5032357;28;20120;-59
2021/08/29 00:41:31;;;;;;;4.78;3.08;;;10.20;99.90;;;;;;5033113;28;20033;-62
2021/08/29 00:43:57;;;;;;;9.63;3.05;;;10.30;99.90;;;;;;5032443;28;20030;-59
2021/08/29 00:46:24;;;;;;;5.70;2.80;;;10.20;99.90;;;;;;5033454;28;20021;-60
2021/08/29 00:48:51;;;;;;;7.20;2.60;;;10.20;99.90;;;;;;5032266;28;20256;-59
2021/08/29 00:51:17;;;;;;;10.73;3.15;;;10.20;99.90;;;;;;5032451;28;20376;-59
2021/08/29 00:53:50;;;;;;;6.93;2.83;;;10.20;99.90;;;;;;5032425;28;20042;-59
2021/08/29 00:56:19;;;;;;;5.80;2.83;;;10.10;99.90;;;;;;5032412;28;20387;-59
2021/08/29 00:58:49;;;;;;;8.25;3.17;;;10.10;99.90;;;;;;5032294;28;20380;-60
2021/08/29 01:01:17;;;;;;;6.72;2.75;;;10.00;99.90;;;;;;5032422;28;20502;-60
2021/08/29 01:03:44;;;;;;;8.10;2.97;;;10.00;99.90;;;;;;5032270;28;20399;-59
2021/08/29 01:06:29;;;;;;;4.30;2.67;;;10.00;99.90;;;;;;5030148;28;20112;-61
2021/08/29 01:09:05;;;;;;;4.60;2.85;;;10.00;99.90;;;;;;5052116;28;20138;-59
2021/08/29 01:11:31;;;;;;;8.73;3.20;;;10.00;99.90;;;;;;5052093;28;20040;-60
2021/08/29 01:14:21;;;;;;;5.90;2.97;;;10.00;99.90;;;;;;5051393;28;20493;-61
2021/08/29 01:16:52;;;;;;;8.15;3.15;;;10.00;99.90;;;;;;5052126;28;20033;-60
2021/08/29 01:19:21;;;;;;;8.02;3.05;;;9.90;99.90;;;;;;5051488;28;20033;-60
2021/08/29 01:21:49;;;;;;;5.13;2.72;;;9.90;99.90;;;;;;5051956;28;20107;-59
2021/08/29 01:24:18;;;;;;;6.15;2.60;;;9.90;99.90;;;;;;5039133;28;20041;-61
2021/08/29 01:26:46;;;;;;;12.93;3.08;;;9.90;99.90;;;;;;5048572;28;20033;-59
2021/08/29 01:29:18;;;;;;;7.18;2.92;;;9.90;99.90;;;;;;5051800;28;20049;-60
2021/08/29 01:31:44;;;;;;;5.22;2.83;;;9.80;99.90;;;;;;5051936;28;20037;-60
2021/08/29 01:34:16;;;;;;;8.75;3.22;;;9.80;99.90;;;;;;5051473;28;20159;-61
2021/08/29 01:36:44;;;;;;;4.65;2.70;;;9.80;99.90;;;;;;5051641;28;20050;-59
2021/08/29 01:39:10;;;;;;;5.22;2.50;;;9.80;99.90;;;;;;5051296;28;20039;-59
2021/08/29 01:41:40;;;;;;;4.93;2.78;;;9.80;99.90;;;;;;5050591;28;20037;-60
2021/08/29 01:44:06;;;;;;;7.45;2.83;;;9.80;99.90;;;;;;5051472;28;20115;-61
2021/08/29 01:46:33;;;;;;;4.35;2.40;;;9.70;99.90;;;;;;5050556;28;20506;-60
2021/08/29 01:49:01;;;;;;;7.10;2.90;;;9.70;99.90;;;;;;5051008;28;20031;-60
2021/08/29 01:51:27;;;;;;;6.82;3.03;;;9.70;99.90;;;;;;5051236;28;20448;-59
2021/08/29 01:53:53;;;;;;;4.55;2.70;;;9.70;99.90;;;;;;5039141;28;20351;-60
2021/08/29 01:56:19;;;;;;;3.97;2.60;;;9.60;99.90;;;;;;5051022;28;20060;-61
2021/08/29 01:58:45;;;;;;;5.95;2.85;;;9.60;99.90;;;;;;5051597;28;20487;-61
2021/08/29 02:01:12;;;;;;;6.82;3.08;;;9.60;99.90;;;;;;5044348;28;20037;-60
2021/08/29 02:03:43;;;;;;;8.27;2.97;;;9.50;99.90;;;;;;5044781;28;20534;-59
2021/08/29 02:06:16;;;;;;;7.25;3.28;;;9.50;99.90;;;;;;5050594;28;20047;-59
2021/08/29 02:08:51;;;;;;;4.68;2.70;;;9.50;99.90;;;;;;5051729;28;20042;-59
2021/08/29 02:11:20;;;;;;;4.95;3.08;;;9.50;99.90;;;;;;5050681;28;20025;-62
2021/08/29 02:13:49;;;;;;;5.63;3.17;;;9.40;99.90;;;;;;5051608;28;20041;-61
2021/08/29 02:16:18;;;;;;;8.98;3.25;;;9.40;99.90;;;;;;5050438;28;20501;-60
2021/08/29 02:18:50;;;;;;;6.53;3.22;;;9.50;99.90;;;;;;5051366;28;20017;-60
2021/08/29 02:21:16;;;;;;;7.15;3.40;;;9.50;99.90;;;;;;5050324;28;20025;-63
2021/08/29 02:23:45;;;;;;;10.85;4.22;;;9.60;99.90;;;;;;5050607;28;20514;-60
2021/08/29 02:26:12;;;;;;;6.13;3.13;;;9.60;99.90;;;;;;5050343;28;20071;-59
2021/08/29 02:28:38;;;;;;;11.48;3.70;;;9.60;99.90;;;;;;5051299;28;20396;-60
2021/08/29 02:31:05;;;;;;;5.43;3.10;;;9.70;99.90;;;;;;5050368;28;20028;-58
2021/08/29 02:33:31;;;;;;;4.10;2.83;;;9.80;99.90;;;;;;5050935;28;20017;-61
2021/08/29 02:35:59;;;;;;;7.10;3.17;;;9.80;99.90;;;;;;5050202;28;20091;-58
2021/08/29 02:38:25;;;;;;;7.50;3.10;;;9.80;99.90;;;;;;5050916;28;20024;-59
2021/08/29 02:40:55;;;;;;;5.47;3.10;;;9.80;99.90;;;;;;5040549;28;20029;-59
2021/08/29 02:43:21;;;;;;;9.50;3.15;;;9.80;99.90;;;;;;5037052;28;21298;-60
2021/08/29 02:45:48;;;;;;;6.32;3.28;;;9.80;99.90;;;;;;5050038;28;20044;-60
2021/08/29 02:48:15;;;;;;;9.30;3.70;;;9.90;99.90;;;;;;5050052;28;20037;-59
2021/08/29 02:50:41;;;;;;;10.85;2.80;;;9.90;99.90;;;;;;5037421;28;20034;-58
2021/08/29 02:53:07;;;;;;;6.72;3.42;;;9.90;99.90;;;;;;5037564;28;20029;-60
2021/08/29 02:55:33;;;;;;;7.75;3.03;;;9.90;99.90;;;;;;5049280;28;20032;-62
2021/08/29 02:58:05;;;;;;;6.88;3.50;;;9.90;99.90;;;;;;5050965;28;20490;-59
2021/08/29 03:00:31;;;;;;;5.35;3.10;;;10.00;99.90;;;;;;5050070;28;20025;-60
2021/08/29 03:02:56;;;;;;;7.70;3.35;;;10.00;99.90;;;;;;5050969;28;20029;-60
2021/08/29 03:05:22;;;;;;;6.30;3.35;;;10.00;99.90;;;;;;5049866;28;20490;-59
2021/08/29 03:07:48;;;;;;;7.55;3.60;;;10.00;99.90;;;;;;5050714;28;20066;-59
2021/08/29 03:10:15;;;;;;;6.47;3.22;;;10.10;99.90;;;;;;5048319;28;20053;-60
2021/08/29 03:12:42;;;;;;;7.15;3.60;;;10.10;99.90;;;;;;5030840;28;20041;-60
2021/08/29 03:15:08;;;;;;;9.48;3.90;;;10.10;99.90;;;;;;5038150;28;20025;-59
2021/08/29 03:17:34;;;;;;;9.80;3.72;;;10.20;99.90;;;;;;5050555;28;20024;-60
2021/08/29 03:20:01;;;;;;;8.13;3.70;;;10.20;99.90;;;;;;5050149;28;20044;-60
2021/08/29 03:22:27;;;;;;;7.00;3.63;;;10.20;99.90;;;;;;5049053;28;20394;-59
2021/08/29 03:24:53;;;;;;;8.43;3.33;;;10.30;99.90;;;;;;5049986;28;20042;-60
2021/08/29 03:27:19;;;;;;;8.55;4.03;;;10.30;99.90;;;;;;5050611;28;20108;-60
2021/08/29 03:29:45;;;;;;;6.53;3.92;;;10.30;99.90;;;;;;5049716;28;20219;-59
2021/08/29 03:32:11;;;;;;;7.72;3.55;;;10.30;99.90;;;;;;5038609;28;20086;-60
2021/08/29 03:34:37;;;;;;;13.07;3.88;;;10.30;99.90;;;;;;5031790;28;20034;-60
2021/08/29 03:37:04;;;;;;;7.32;3.88;;;10.30;99.90;;;;;;5053178;28;20151;-61
2021/08/29 03:39:31;;;;;;;11.68;3.88;;;10.30;99.90;;;;;;5047630;28;20082;-59
2021/08/29 03:41:58;;;;;;;8.27;3.20;;;10.30;99.90;;;;;;5053116;28;20433;-61
2021/08/29 03:44:25;;;;;;;6.03;3.55;;;10.30;99.90;;;;;;5054242;28;20025;-60
2021/08/29 03:46:52;;;;;;;6.53;3.05;;;10.30;99.90;;;;;;5053234;28;20052;-60
2021/08/29 03:49:18;;;;;;;8.63;4.15;;;10.30;99.90;;;;;;5052828;28;20036;-59
2021/08/29 03:51:46;;;;;;;11.85;3.88;;;10.30;99.90;;;;;;5048910;28;20033;-59
2021/08/29 03:54:13;;;;;;;6.13;3.70;;;10.30;99.90;;;;;;5054380;28;20083;-60
2021/08/29 03:56:40;;;;;;;8.95;4.10;;;10.20;99.90;;;;;;5053072;28;20112;-60
2021/08/29 03:59:06;;;;;;;6.97;3.97;;;10.20;99.90;;;;;;5053865;28;20068;-60
2021/08/29 04:01:32;;;;;;;8.43;3.75;;;10.10;99.90;;;;;;5053558;28;20029;-59
2021/08/29 04:03:58;;;;;;;8.50;3.70;;;10.10;99.90;;;;;;5053691;28;20035;-58
2021/08/29 04:06:28;;;;;;;13.73;3.92;;;10.10;99.90;;;;;;5052394;28;20073;-61
2021/08/29 04:08:55;;;;;;;9.52;4.18;;;10.10;99.90;;;;;;5053771;28;20029;-59
2021/08/29 04:11:27;;;;;;;8.43;4.32;;;10.00;99.90;;;;;;5052938;28;20040;-60
2021/08/29 04:13:54;;;;;;;9.10;4.57;;;10.00;99.90;;;;;;5053581;28;20017;-60
2021/08/29 04:16:20;;;;;;;6.47;3.78;;;9.90;99.90;;;;;;5052633;28;20476;-60
2021/08/29 04:18:47;;;;;;;8.13;4.25;;;9.90;99.90;;;;;;5053523;28;20040;-63
2021/08/29 04:21:15;;;;;;;9.38;3.80;;;9.90;99.90;;;;;;5052431;28;20475;-61
2021/08/29 04:23:41;;;;;;;9.38;3.95;;;9.90;99.90;;;;;;5053683;28;20025;-61
2021/08/29 04:26:07;;;;;;;10.70;4.47;;;9.90;99.90;;;;;;5048495;28;20038;-58
2021/08/29 04:28:34;;;;;;;10.10;4.38;;;9.90;99.90;;;;;;5040604;28;20136;-61
2021/08/29 04:31:11;;;;;;;20.85;4.70;;;9.80;99.90;;;;;;5052750;28;20043;-59
2021/08/29 04:33:38;;;;;;;10.93;4.65;;;9.70;99.90;;;;;;5036203;28;20540;-60
2021/08/29 04:36:08;;;;;;;9.32;4.25;;;9.70;99.90;;;;;;5039569;28;20476;-59
2021/08/29 04:38:33;;;;;;;7.60;4.05;;;9.70;99.90;;;;;;5052510;28;20025;-59
2021/08/29 04:40:59;;;;;;;11.27;4.85;;;9.70;99.90;;;;;;5052322;28;20399;-60
2021/08/29 04:43:25;;;;;;;9.57;4.60;;;9.70;99.90;;;;;;5052905;28;20029;-59
2021/08/29 04:45:51;;;;;;;11.85;4.70;;;9.70;99.90;;;;;;5052241;28;20036;-60
2021/08/29 04:48:17;;;;;;;11.05;4.70;;;9.70;99.90;;;;;;5052217;28;20039;-61
2021/08/29 04:50:43;;;;;;;10.32;5.15;;;9.70;99.90;;;;;;5052167;28;20039;-59
2021/08/29 04:53:08;;;;;;;10.50;4.90;;;9.70;99.90;;;;;;5052940;28;20060;-60
2021/08/29 04:55:34;;;;;;;13.10;5.30;;;9.70;99.90;;;;;;5052183;28;20449;-61
2021/08/29 04:58:00;;;;;;;9.48;4.63;;;9.70;99.90;;;;;;5052728;28;20048;-62
2021/08/29 05:00:26;;;;;;;11.68;4.72;;;9.80;99.90;;;;;;5052045;28;20025;-60
2021/08/29 05:02:51;;;;;;;8.70;4.53;;;9.80;99.90;;;;;;5052675;28;20025;-59
2021/08/29 05:05:17;;;;;;;9.63;4.80;;;9.80;99.90;;;;;;5051943;28;20043;-60
2021/08/29 05:07:43;;;;;;;16.63;5.05;;;9.80;99.90;;;;;;5052554;28;20151;-61
2021/08/29 05:10:09;;;;;;;11.70;4.60;;;9.90;99.90;;;;;;5052390;28;20029;-60
2021/08/29 05:12:35;;;;;;;9.40;4.70;;;9.90;99.90;;;;;;5051405;28;20037;-59
2021/08/29 05:15:00;;;;;;;13.20;4.80;;;9.90;99.90;;;;;;5052344;28;20029;-60
2021/08/29 05:17:26;;;;;;;9.82;4.53;;;9.90;99.90;;;;;;5051412;28;20076;-59
2021/08/29 05:19:52;;;;;;;7.80;4.50;;;10.00;99.90;;;;;;5046783;28;20044;-59
2021/08/29 05:22:17;;;;;;;17.83;4.90;;;10.00;99.90;;;;;;5043201;28;20082;-59
2021/08/29 05:24:43;;;;;;;10.57;5.30;;;10.00;99.90;;;;;;5052197;28;20117;-59
2021/08/29 05:27:08;;;;;;;9.25;4.70;;;10.10;99.90;;;;;;5048262;28;20071;-60
2021/08/29 05:29:34;;;;;;;11.15;4.65;;;10.10;99.90;;;;;;5051834;28;20102;-60
2021/08/29 05:32:00;;;;;;;20.02;5.20;;;10.10;99.90;;;;;;5050037;28;20534;-62
2021/08/29 05:34:26;;;;;;;13.90;5.07;;;10.10;99.90;;;;;;5051933;28;20049;-61
2021/08/29 05:36:51;;;;;;;12.07;4.90;;;10.30;99.90;;;;;;5051070;28;20029;-60
2021/08/29 05:39:17;;;;;;;11.48;5.55;;;10.30;99.90;;;;;;5052036;28;20037;-61
2021/08/29 05:41:43;;;;;;;11.55;5.53;;;10.30;99.90;;;;;;5051085;28;20029;-60
2021/08/29 05:44:09;;;;;;;11.60;5.40;;;10.40;99.90;;;;;;5051904;28;20063;-60
2021/08/29 05:46:34;;;;;;;9.50;5.18;;;10.50;99.90;;;;;;5051034;28;20033;-61
2021/08/29 05:49:00;;;;;;;14.20;5.18;;;10.60;99.90;;;;;;5051853;28;20037;-59
2021/08/29 05:51:26;;;;;;;14.32;5.57;;;10.70;99.90;;;;;;5050950;28;20035;-62
2021/08/29 05:53:51;;;;;;;9.32;5.30;;;10.80;99.90;;;;;;5037806;28;20033;-59
2021/08/29 05:56:17;;;;;;;16.77;6.05;;;10.80;99.90;;;;;;5050762;28;20041;-60
2021/08/29 05:58:43;;;;;;;17.17;5.88;;;10.90;99.90;;;;;;5050481;28;20148;-59
2021/08/29 06:01:13;;;;;;;17.08;6.50;;;11.00;99.90;;;;;;5050798;28;20036;-61
2021/08/29 06:03:39;;;;;;;13.18;6.15;;;11.20;99.90;;;;;;5051410;28;20505;-59
2021/08/29 06:06:05;;;;;;;11.32;5.50;;;11.20;99.90;;;;;;5043207;28;20075;-60
2021/08/29 06:08:30;;;;;;;12.30;5.47;;;11.30;99.90;;;;;;5045155;28;20367;-61
2021/08/29 06:10:57;;;;;;;14.50;5.82;;;11.40;99.90;;;;;;5036857;28;20085;-59
2021/08/29 06:13:23;;;;;;;13.15;5.47;;;11.40;99.90;;;;;;5039254;28;20099;-60
2021/08/29 06:15:48;;;;;;;11.93;5.35;;;11.60;99.90;;;;;;5048840;28;20033;-60
2021/08/29 06:18:14;;;;;;;22.30;6.45;;;11.60;99.90;;;;;;5051240;28;20031;-59
2021/08/29 06:20:41;;;;;;;15.63;5.60;;;11.80;99.90;;;;;;5049827;28;20082;-62
2021/08/29 06:23:07;;;;;;;17.38;6.50;;;12.00;99.90;;;;;;5050621;28;20063;-60
2021/08/29 06:25:32;;;;;;;15.93;6.20;;;12.00;99.90;;;;;;5051572;28;20025;-60
2021/08/29 06:27:58;;;;;;;15.88;6.20;;;12.10;99.90;;;;;;5047319;28;20071;-60
2021/08/29 06:30:24;;;;;;;20.60;7.10;;;12.20;99.90;;;;;;5043291;28;20112;-59
2021/08/29 06:32:50;;;;;;;23.88;8.35;;;12.30;99.90;;;;;;5044284;28;20037;-60
2021/08/29 06:35:16;;;;;;;18.40;6.43;;;12.40;99.90;;;;;;5051045;28;20405;-60
2021/08/29 06:37:42;;;;;;;19.48;7.03;;;12.40;99.90;;;;;;5050335;28;20075;-59
2021/08/29 06:40:08;;;;;;;22.25;8.05;;;12.40;99.90;;;;;;5046071;28;20033;-60
2021/08/29 06:42:34;;;;;;;26.45;9.38;;;12.50;99.90;;;;;;5050190;28;20032;-62
2021/08/29 06:45:00;;;;;;;24.77;9.52;;;12.60;99.90;;;;;;5050868;28;20021;-59
2021/08/29 06:47:25;;;;;;;31.60;10.40;;;12.60;99.90;;;;;;5050182;28;20108;-59
2021/08/29 06:49:51;;;;;;;30.23;10.23;;;12.90;99.90;;;;;;5050593;28;20451;-59
2021/08/29 06:52:17;;;;;;;37.35;10.52;;;13.00;99.90;;;;;;5050483;28;20057;-60
2021/08/29 06:54:42;;;;;;;37.60;12.93;;;13.10;99.90;;;;;;5050922;28;20033;-60
2021/08/29 06:57:08;;;;;;;35.53;12.05;;;13.30;99.90;;;;;;5049861;28;20040;-59
2021/08/29 06:59:33;;;;;;;32.72;12.38;;;13.40;99.90;;;;;;5050849;28;20034;-60
2021/08/29 07:01:59;;;;;;;38.83;12.50;;;13.60;99.90;;;;;;5049806;28;20399;-61
2021/08/29 07:04:25;;;;;;;32.38;10.95;;;13.60;99.90;;;;;;5050756;28;20017;-60
2021/08/29 07:06:51;;;;;;;29.45;11.07;;;13.70;99.90;;;;;;5049598;28;20029;-60
2021/08/29 07:09:16;;;;;;;35.33;10.73;;;13.70;99.90;;;;;;5050538;28;20490;-60
2021/08/29 07:11:42;;;;;;;26.65;10.00;;;13.60;99.90;;;;;;5053753;28;20497;-60
2021/08/29 07:14:08;;;;;;;27.77;10.60;;;13.70;99.90;;;;;;5054547;28;20482;-60
2021/08/29 07:16:33;;;;;;;32.60;11.75;;;13.70;99.90;;;;;;5054145;28;20037;-61
2021/08/29 07:18:59;;;;;;;49.83;14.57;;;13.70;99.90;;;;;;5054518;28;20154;-59
2021/08/29 07:21:25;;;;;;;39.35;13.95;;;13.70;99.90;;;;;;5054001;28;20383;-58
2021/08/29 07:23:50;;;;;;;40.70;13.48;;;13.70;99.90;;;;;;5054226;28;20041;-60
2021/08/29 07:26:16;;;;;;;46.25;13.75;;;13.80;99.90;;;;;;5050798;28;20061;-60
2021/08/29 07:28:43;;;;;;;38.28;14.20;;;14.00;99.90;;;;;;5054211;28;20138;-61
2021/08/29 07:31:09;;;;;;;41.95;14.45;;;14.10;99.90;;;;;;5054019;28;20075;-59
2021/08/29 07:33:34;;;;;;;42.38;14.05;;;14.40;99.90;;;;;;5054119;28;20035;-60
2021/08/29 07:36:00;;;;;;;43.90;15.88;;;14.40;99.90;;;;;;5041981;28;20042;-59
2021/08/29 07:38:26;;;;;;;42.28;13.93;;;14.30;99.90;;;;;;5051870;28;20094;-59
2021/08/29 07:40:52;;;;;;;35.05;12.90;;;14.30;99.90;;;;;;5054188;28;20525;-60
2021/08/29 07:43:18;;;;;;;37.28;14.18;;;14.10;99.90;;;;;;5053575;28;20041;-59
2021/08/29 07:45:44;;;;;;;37.03;13.48;;;14.10;99.90;;;;;;5054117;28;20108;-59
2021/08/29 07:48:09;;;;;;;33.70;12.90;;;14.30;99.90;;;;;;5053369;28;20029;-59
2021/08/29 07:50:35;;;;;;;33.30;13.57;;;14.50;99.90;;;;;;5054057;28;20425;-60
2021/08/29 07:53:01;;;;;;;34.25;14.15;;;14.60;99.90;;;;;;5053494;28;20041;-58
2021/08/29 07:55:27;;;;;;;35.40;12.88;;;14.60;99.90;;;;;;5053708;28;20068;-61
2021/08/29 07:57:52;;;;;;;31.02;12.75;;;14.70;99.90;;;;;;5053103;28;20029;-59
2021/08/29 08:00:19;;;;;;;31.42;13.77;;;14.80;99.90;;;;;;5053779;28;20037;-59
2021/08/29 08:02:44;;;;;;;23.73;10.55;;;14.90;99.90;;;;;;5053010;28;20029;-60
2021/08/29 08:05:10;;;;;;;24.05;10.07;;;15.20;99.90;;;;;;5053380;28;20368;-60
2021/08/29 08:07:36;;;;;;;22.65;9.93;;;15.50;99.90;;;;;;5052943;28;20029;-60
2021/08/29 08:10:03;;;;;;;21.58;8.68;;;15.70;99.90;;;;;;5053811;28;20087;-60
2021/08/29 08:12:29;;;;;;;25.40;9.10;;;15.90;99.90;;;;;;5048207;28;20038;-59
2021/08/29 08:14:54;;;;;;;26.48;8.95;;;16.10;99.90;;;;;;5043243;28;20037;-60
2021/08/29 08:17:20;;;;;;;21.70;9.35;;;16.30;99.90;;;;;;5052790;28;20807;-60
2021/08/29 08:19:46;;;;;;;22.15;8.95;;;16.40;99.90;;;;;;5052163;28;20075;-60
2021/08/29 08:22:11;;;;;;;26.25;10.25;;;16.70;99.90;;;;;;5051593;28;20112;-61
2021/08/29 08:24:37;;;;;;;17.55;8.52;;;16.80;99.90;;;;;;5053166;28;20070;-61
2021/08/29 08:27:03;;;;;;;27.20;9.30;;;16.90;99.90;;;;;;5050082;28;20336;-59
2021/08/29 08:29:28;;;;;;;23.70;9.75;;;16.80;99.90;;;;;;5052889;28;20049;-61
2021/08/29 08:31:54;;;;;;;26.35;9.88;;;16.80;99.90;;;;;;5052653;28;20029;-60
2021/08/29 08:34:20;;;;;;;24.27;8.70;;;17.00;99.90;;;;;;5052959;28;20047;-59
2021/08/29 08:36:45;;;;;;;17.92;7.18;;;17.10;99.90;;;;;;5052383;28;20171;-59
2021/08/29 08:39:11;;;;;;;22.15;6.95;;;17.20;99.90;;;;;;5052985;28;20202;-59
2021/08/29 08:41:38;;;;;;;18.48;6.80;;;17.30;99.90;;;;;;5052982;28;20037;-61
2021/08/29 08:44:04;;;;;;;14.73;5.75;;;17.30;99.90;;;;;;5052601;28;20037;-59
2021/08/29 08:46:30;;;;;;;14.20;5.88;;;17.20;99.90;;;;;;5052689;28;20040;-60
2021/08/29 08:48:56;;;;;;;16.23;5.93;;;17.20;99.90;;;;;;5052251;28;20038;-60
2021/08/29 08:51:25;;;;;;;16.20;6.10;;;17.10;99.90;;;;;;5035177;28;20048;-60
2021/08/29 08:53:53;;;;;;;14.32;4.60;;;17.10;99.90;;;;;;5050943;28;20060;-58
2021/08/29 08:56:20;;;;;;;14.55;3.92;;;17.00;99.90;;;;;;5052784;28;20041;-60
2021/08/29 08:58:46;;;;;;;13.32;3.58;;;17.10;99.90;;;;;;5051909;28;20098;-60
2021/08/29 09:01:13;;;;;;;8.80;3.55;;;17.10;99.90;;;;;;5052637;28;20155;-58
2021/08/29 09:03:39;;;;;;;7.13;2.88;;;17.20;99.90;;;;;;5051772;28;20491;-58
2021/08/29 09:06:06;;;;;;;7.78;2.40;;;17.20;99.90;;;;;;5052724;28;20032;-62
2021/08/29 09:08:34;;;;;;;5.97;2.53;;;17.10;99.90;;;;;;5051693;28;20102;-59
2021/08/29 09:10:59;;;;;;;6.25;2.47;;;17.20;99.90;;;;;;5052521;28;20467;-58
2021/08/29 09:13:25;;;;;;;5.85;2.45;;;17.20;99.90;;;;;;5051799;28;20114;-58
2021/08/29 09:16:13;;;;;;;6.07;2.30;;;17.20;99.90;;;;;;5051801;28;20434;-61
2021/08/29 09:18:49;;;;;;;5.88;2.55;;;17.40;99.90;;;;;;5050253;28;20039;-61
2021/08/29 09:21:23;;;;;;;6.38;2.60;;;17.50;99.90;;;;;;5052148;28;20029;-61
2021/08/29 09:23:49;;;;;;;11.07;2.50;;;17.50;99.90;;;;;;5051486;28;20033;-59
2021/08/29 09:26:19;;;;;;;12.30;2.58;;;17.50;99.90;;;;;;5049205;28;20419;-60
2021/08/29 09:28:49;;;;;;;8.75;2.67;;;17.40;99.90;;;;;;5051521;28;20049;-61
2021/08/29 09:31:16;;;;;;;9.18;2.50;;;17.30;99.90;;;;;;5052156;28;20479;-60
2021/08/29 09:33:42;;;;;;;7.28;2.30;;;17.30;99.90;;;;;;5051072;28;20017;-61
2021/08/29 09:36:10;;;;;;;7.85;2.20;;;17.30;99.90;;;;;;5038317;28;20825;-61
2021/08/29 09:38:41;;;;;;;12.90;2.45;;;17.30;99.90;;;;;;5050806;28;20025;-60
2021/08/29 09:41:25;;;;;;;6.68;2.20;;;17.50;99.90;;;;;;5051916;28;20036;-60
2021/08/29 09:43:51;;;;;;;9.02;2.17;;;17.40;99.90;;;;;;5050938;28;20491;-59
2021/08/29 09:46:17;;;;;;;7.97;2.20;;;17.50;99.90;;;;;;5051751;28;20119;-61
2021/08/29 09:48:50;;;;;;;6.55;1.92;;;17.50;99.90;;;;;;5050913;28;20059;-59
2021/08/29 09:51:16;;;;;;;5.30;1.80;;;17.50;99.90;;;;;;5051714;28;20029;-60
2021/08/29 09:53:44;;;;;;;7.45;1.83;;;17.60;99.90;;;;;;5050666;28;20029;-61
2021/08/29 09:56:29;;;;;;;5.55;2.03;;;17.70;99.90;;;;;;5051268;28;20039;-60
2021/08/29 09:58:56;;;;;;;;;;;17.70;99.90;;;;;;5051492;28;20063;-60
2021/08/29 10:01:23;;;;;;;5.75;1.60;;;17.70;99.90;;;;;;5051680;28;19909;-65
2021/08/29 10:03:51;;;;;;;5.55;2.00;;;17.70;99.90;;;;;;5050587;28;20029;-60
2021/08/29 10:06:28;;;;;;;4.22;2.10;;;17.90;99.90;;;;;;5051607;28;20032;-58
2021/08/29 10:09:03;;;;;;;4.13;1.45;;;17.90;99.90;;;;;;5050450;28;20025;-58
2021/08/29 10:11:30;;;;;;;;;;;17.80;99.90;;;;;;5041415;28;20766;-60
2021/08/29 10:13:58;;;;;;;5.18;1.70;;;17.80;99.90;;;;;;5044451;28;20276;-59
2021/08/29 10:16:26;;;;;;;4.80;1.60;;;17.70;99.90;;;;;;5050058;28;20387;-62
2021/08/29 10:18:54;;;;;;;4.00;1.42;;;17.70;99.90;;;;;;5039100;28;20471;-59
2021/08/29 10:21:22;;;;;;;7.38;2.05;;;17.70;99.90;;;;;;5048607;28;20025;-59
2021/08/29 10:23:51;;;;;;;4.82;1.83;;;17.60;99.90;;;;;;5050434;28;20470;-61
2021/08/29 10:26:19;;;;;;;4.10;1.60;;;17.70;99.90;;;;;;5048001;28;20025;-60
2021/08/29 10:28:51;;;;;;;5.30;1.67;;;17.70;99.90;;;;;;5049956;28;20131;-60
2021/08/29 10:31:19;;;;;;;4.60;1.63;;;17.90;99.90;;;;;;5051095;28;20047;-60
2021/08/29 10:33:49;;;;;;;5.28;1.60;;;18.20;99.90;;;;;;5050287;28;20387;-58
2021/08/29 10:36:17;;;;;;;6.97;2.03;;;18.40;99.90;;;;;;5035463;28;20575;-59
2021/08/29 10:38:46;;;;;;;4.90;1.70;;;18.30;99.90;;;;;;5050114;28;20028;-60
2021/08/29 10:41:16;;;;;;;5.35;1.60;;;18.30;99.90;;;;;;5050766;28;20103;-59
2021/08/29 10:43:43;;;;;;;4.10;1.42;;;18.30;99.90;;;;;;5049856;28;20467;-62
2021/08/29 10:46:10;;;;;;;5.70;1.90;;;18.20;99.90;;;;;;5050251;28;20037;-60
2021/08/29 10:48:42;;;;;;;3.97;1.58;;;18.30;99.90;;;;;;5041897;28;20060;-60
2021/08/29 10:51:10;;;;;;;4.22;1.60;;;18.30;99.90;;;;;;5041843;28;20099;-60
2021/08/29 10:53:40;;;;;;;4.57;1.70;;;18.30;99.90;;;;;;5050202;28;20037;-61
2021/08/29 10:56:14;;;;;;;5.45;1.85;;;18.40;99.90;;;;;;5050811;28;20043;-59
2021/08/29 10:58:41;;;;;;;5.72;1.90;;;18.30;99.90;;;;;;5049824;28;20021;-60
2021/08/29 11:01:35;;;;;;;6.47;1.65;;;18.40;99.90;;;;;;5050577;28;20036;-59
2021/08/29 11:04:21;;;;;;;5.97;1.63;;;18.40;99.90;;;;;;5049789;28;20025;-58
2021/08/29 11:06:55;;;;;;;8.70;2.00;;;18.40;99.90;;;;;;5053141;28;20183;-60
2021/08/29 11:09:29;;;;;;;5.83;1.87;;;18.50;99.90;;;;;;5049817;28;20037;-62
2021/08/29 11:11:55;;;;;;;6.28;1.48;;;18.50;99.90;;;;;;5050473;28;20320;-61
2021/08/29 11:14:48;;;;;;;6.82;1.52;;;18.40;99.90;;;;;;5049979;28;20116;-61
2021/08/29 11:17:20;;;;;;;5.65;1.70;;;18.40;99.90;;;;;;5050727;28;20029;-59
2021/08/29 11:19:54;;;;;;;4.75;1.50;;;18.40;99.90;;;;;;5049715;28;20071;-60
2021/08/29 11:22:26;;;;;;;6.13;2.00;;;18.50;99.90;;;;;;5050364;28;20113;-60
2021/08/29 11:24:58;;;;;;;5.50;1.90;;;18.50;99.90;;;;;;5049319;28;20029;-60
2021/08/29 11:27:36;;;;;;;5.55;1.60;;;18.60;99.90;;;;;;5047902;28;20420;-58
2021/08/29 11:30:05;;;;;;;4.95;1.63;;;18.80;99.90;;;;;;5049747;28;20061;-59
2021/08/29 11:32:33;;;;;;;8.93;1.85;;;18.80;99.90;;;;;;5050329;28;20032;-60
2021/08/29 11:35:15;;;;;;;4.25;1.30;;;18.90;99.90;;;;;;5049237;28;20041;-60
2021/08/29 11:37:42;;;;;;;7.63;1.65;;;19.00;99.90;;;;;;5050159;28;20052;-60
2021/08/29 11:40:11;;;;;;;4.70;1.33;;;19.10;99.90;;;;;;5049520;28;20569;-60
2021/08/29 11:42:38;;;;;;;7.43;1.73;;;19.20;99.90;;;;;;5050440;28;20033;-61
2021/08/29 11:45:05;;;;;;;4.22;1.50;;;19.30;99.90;;;;;;5049575;28;20037;-61
2021/08/29 11:47:38;;;;;;;5.90;1.63;;;19.10;99.90;;;;;;5050170;28;20502;-59
2021/08/29 11:50:06;;;;;;;2.92;1.60;;;19.10;99.90;;;;;;5049385;28;20033;-59
2021/08/29 11:52:35;;;;;;;3.53;1.00;;;18.90;99.90;;;;;;5050214;28;20057;-59
2021/08/29 11:55:04;;;;;;;6.55;1.63;;;18.80;99.90;;;;;;5035329;28;20105;-60
2021/08/29 11:57:30;;;;;;;7.68;1.48;;;18.80;99.90;;;;;;5053089;28;20044;-59
2021/08/29 12:00:10;;;;;;;4.20;1.50;;;18.80;99.90;;;;;;5053436;28;20029;-59
2021/08/29 12:02:42;;;;;;;3.67;1.40;;;18.80;99.90;;;;;;5053909;28;20116;-59
2021/08/29 12:05:14;;;;;;;4.78;1.50;;;18.80;99.90;;;;;;5051964;28;20515;-59
2021/08/29 12:08:01;;;;;;;8.82;1.90;;;18.90;99.90;;;;;;5054013;28;20028;-60
2021/08/29 12:10:27;;;;;;;8.90;2.30;;;18.90;99.90;;;;;;5053430;28;20033;-59
2021/08/29 12:12:54;;;;;;;5.72;2.15;;;19.00;99.90;;;;;;5053440;28;20044;-56
2021/08/29 12:15:25;;;;;;;10.27;6.20;;;19.00;99.90;;;;;;5052377;28;20036;-60
2021/08/29 12:17:57;;;;;;;4.65;1.75;;;19.20;99.90;;;;;;5053364;28;20498;-60
2021/08/29 12:20:26;;;;;;;10.57;2.28;;;19.20;99.90;;;;;;5042961;28;20048;-60
2021/08/29 12:22:53;;;;;;;6.40;1.35;;;19.10;99.90;;;;;;5049395;28;20482;-61
2021/08/29 12:25:22;;;;;;;3.88;1.50;;;19.20;99.90;;;;;;5052914;28;20032;-60
2021/08/29 12:27:49;;;;;;;3.92;1.50;;;19.20;99.90;;;;;;5050204;28;20813;-60
2021/08/29 12:30:15;;;;;;;3.45;1.60;;;19.10;99.90;;;;;;5046123;28;20025;-60
2021/08/29 12:32:41;;;;;;;6.60;1.80;;;19.10;99.90;;;;;;5046028;28;20369;-59
2021/08/29 12:35:09;;;;;;;5.28;1.50;;;19.00;99.90;;;;;;5051791;28;20092;-59
2021/08/29 12:37:42;;;;;;;2.75;1.42;;;18.90;99.90;;;;;;5053301;28;20109;-59
2021/08/29 12:40:15;;;;;;;3.60;1.50;;;18.70;99.90;;;;;;5052380;28;20155;-61
2021/08/29 12:42:42;;;;;;;6.25;1.52;;;18.80;99.90;;;;;;5053127;28;20383;-59
2021/08/29 12:45:13;;;;;;;6.65;2.20;;;18.80;99.90;;;;;;5052013;28;20091;-60
2021/08/29 12:47:40;;;;;;;7.07;1.77;;;18.80;99.90;;;;;;5053124;28;20051;-60